Norasia Valparaiso — A8CJ9 — position and weather

sailwx.info

Track history (hours):
 
Tides and Currents Weather Stations Pressure Air Temp Water Temp Dewpoint Dewpoint Depression Visibility Wind Speed Wind Dir Waves Ship Positions

Norasia Valparaiso

Last reported at 2014-Jun-01 13:33 UTC. Time now 2014-Jul-25 01:34 UTC.
Position N 37°03' E 026°08'.
Warning: this ship's position is 53 days out of date.

Length 286.3 m; beam 32.2 m; draft 13.2 m.

Type: Cargo ship. MMSI: 636090659.

Date/timePositionNaut miles runAvg speedWind from/ knotsBaromVisibWave heightAir tempDewpointWater temp
2014-Jun-01 13:33N 37°03' E 026°08'1010.0
2014-Jun-01 12:33N 37°12' E 026°02'1010.2
2014-Jun-01 11:33N 37°21' E 025°56'1010.1
2014-Jun-01 10:33N 37°29' E 025°50'1110.2
2014-Jun-01 09:29N 37°39' E 025°44'1410.1
2014-Jun-01 08:08N 37°53' E 025°43'111 2.5
2014-May-30 12:25N 39°44' E 025°45'66 9.4
2014-May-30 05:23N 40°28' E 026°50'  
2014-May-26 18:50N 41°30' E 029°10'2 6.1
2014-May-26 18:33N 41°30' E 029°12'510.1
2014-May-26 18:04N 41°29' E 029°18'510.2
2014-May-26 17:33N 41°29' E 029°25'5 9.9
2014-May-26 17:04N 41°29' E 029°32'510.3
2014-May-26 16:33N 41°32' E 029°38'510.4
2014-May-26 16:04N 41°34' E 029°44'  
Track history (hours):
 
Tides and Currents Weather Stations Pressure Air Temp Water Temp Dewpoint Dewpoint Depression Visibility Wind Speed Wind Dir Waves Ship Positions

Norasia Valparaiso

Last reported at 2014-Jun-01 13:33 UTC. Time now 2014-Jul-25 01:34 UTC.
Position N 37°03' E 026°08'.
Warning: this ship's position is 53 days out of date.

Length 286.3 m; beam 32.2 m; draft 13.2 m.

Type: Cargo ship. MMSI: 636090659.

Date/timePositionNaut miles runAvg speedWind from/ knotsBaromVisibWave heightAir tempDewpointWater temp
2014-Jun-01 13:33N 37°03' E 026°08'1010.0
2014-Jun-01 12:33N 37°12' E 026°02'1010.2
2014-Jun-01 11:33N 37°21' E 025°56'1010.1
2014-Jun-01 10:33N 37°29' E 025°50'1110.2
2014-Jun-01 09:29N 37°39' E 025°44'1410.1
2014-Jun-01 08:08N 37°53' E 025°43'111 2.5
2014-May-30 12:25N 39°44' E 025°45'66 9.4
2014-May-30 05:23N 40°28' E 026°50'  
2014-May-26 18:50N 41°30' E 029°10'2 6.1
2014-May-26 18:33N 41°30' E 029°12'510.1
2014-May-26 18:04N 41°29' E 029°18'510.2
2014-May-26 17:33N 41°29' E 029°25'5 9.9
2014-May-26 17:04N 41°29' E 029°32'510.3
2014-May-26 16:33N 41°32' E 029°38'510.4
2014-May-26 16:04N 41°34' E 029°44'  

Dump ship's entire track history